Time;durP1;ratioP1;P1;durP2;ratioP2;P2;SDS_P1;SDS_P2;PMS_P1;PMS_P2;Temp;Humidity;BMP_temperature;BMP_pressure;BME280_temperature;BME280_humidity;BME280_pressure;Samples;Min_cycle;Max_cycle;Signal;HPM_P1;HPM_P2
2022/10/31 00:02:00;;;;;;;0.20;0.20;;;;;;;19.30;62.67;97110.56;10562659;28;21204;-28
2022/10/31 00:07:01;;;;;;;0.33;0.33;;;;;;;19.30;62.64;97103.81;10561673;28;20040;-29
2022/10/31 00:12:01;;;;;;;0.30;0.30;;;;;;;19.31;62.39;97109.72;10557867;28;20277;-29
2022/10/31 00:17:02;;;;;;;0.20;0.20;;;;;;;19.30;62.31;97103.81;10561633;28;20028;-30
2022/10/31 00:22:02;;;;;;;0.33;0.33;;;;;;;19.34;64.99;97107.19;10552660;28;20147;-30
2022/10/31 00:27:02;;;;;;;0.30;0.30;;;;;;;19.46;66.21;97100.47;10558144;28;20503;-28
2022/10/31 00:32:03;;;;;;;0.63;0.63;;;;;;;19.53;64.65;97106.38;10545194;28;20481;-29
2022/10/31 00:37:04;;;;;;;0.10;0.10;;;;;;;19.42;62.95;97103.00;10558295;28;20508;-29
2022/10/31 00:42:04;;;;;;;0.32;0.28;;;;;;;19.34;62.79;97104.66;10568688;28;20540;-28
2022/10/31 00:47:04;;;;;;;0.40;0.40;;;;;;;19.32;62.86;97106.31;10544159;28;20028;-29
2022/10/31 00:52:05;;;;;;;0.60;0.40;;;;;;;19.32;62.84;97098.69;10561850;28;20024;-28
2022/10/31 00:57:05;;;;;;;0.85;0.65;;;;;;;19.31;62.76;97095.34;10545708;28;20291;-28
2022/10/31 01:02:06;;;;;;;0.50;0.45;;;;;;;19.30;62.76;97095.31;10571238;28;20106;-30
2022/10/31 01:07:06;;;;;;;0.43;0.43;;;;;;;19.32;62.67;97097.03;10564988;28;20034;-28
2022/10/31 01:12:07;;;;;;;0.30;0.30;;;;;;;19.28;62.26;97089.41;10569498;28;20793;-29
2022/10/31 01:17:07;;;;;;;0.77;0.37;;;;;;;19.30;62.22;97088.56;10546280;28;20318;-29
2022/10/31 01:22:08;;;;;;;0.40;0.40;;;;;;;19.30;62.16;97087.72;10560565;28;20297;-29
2022/10/31 01:27:08;;;;;;;0.40;0.33;;;;;;;19.43;66.23;97084.38;10546687;28;20290;-29
2022/10/31 01:32:08;;;;;;;0.33;0.30;;;;;;;19.51;65.95;97086.06;10544461;28;20023;-28
2022/10/31 01:37:09;;;;;;;0.40;0.40;;;;;;;19.50;63.13;97081.81;10563063;28;20088;-30
2022/10/31 01:42:17;;;;;;;0.30;0.30;;;;;;;19.35;62.82;97081.78;10564469;28;20028;-29
2022/10/31 01:47:24;;;;;;;0.38;0.30;;;;;;;19.31;62.95;97074.16;10561187;28;20247;-28
2022/10/31 01:52:29;;;;;;;0.50;0.50;;;;;;;19.33;62.74;97069.97;10540531;28;20027;-28
2022/10/31 01:57:33;;;;;;;0.20;0.20;;;;;;;19.31;62.63;97064.00;10545699;28;20039;-29
2022/10/31 02:02:33;;;;;;;0.30;0.20;;;;;;;19.31;62.65;97064.88;10546731;28;20441;-29
2022/10/31 02:07:42;;;;;;;0.25;0.25;;;;;;;19.30;62.29;97065.72;10562055;28;20081;-29
2022/10/31 02:12:44;;;;;;;0.30;0.30;;;;;;;19.31;62.48;97064.88;10532033;28;20024;-30
2022/10/31 02:17:45;;;;;;;0.35;0.35;;;;;;;19.30;62.23;97063.19;10562744;28;20043;-31
2022/10/31 02:23:31;;;;;;;0.50;0.22;;;;;;;19.31;62.04;97056.41;10562884;28;20031;-29
2022/10/31 02:29:02;;;;;;;0.30;0.30;;;;;;;19.38;65.25;97056.44;10544254;28;20118;-29
2022/10/31 02:34:31;;;;;;;0.82;0.70;;;;;;;19.52;65.59;97048.81;10534769;28;20042;-29
2022/10/31 02:39:53;;;;;;;0.30;0.20;;;;;;;19.50;63.40;97050.53;10534807;28;20451;-29
2022/10/31 02:45:07;;;;;;;0.30;0.30;;;;;;;19.35;62.63;97043.72;10539844;28;20031;-29
2022/10/31 02:50:17;;;;;;;0.35;0.28;;;;;;;19.31;62.82;97044.56;10539231;28;20436;-29
2022/10/31 02:55:26;;;;;;;0.43;0.30;;;;;;;19.32;62.95;97040.31;10559848;28;20036;-28
2022/10/31 03:00:39;;;;;;;0.28;0.28;;;;;;;19.31;62.65;97038.63;10538695;28;20027;-29
2022/10/31 03:06:27;;;;;;;0.40;0.40;;;;;;;19.31;62.56;97033.53;10542352;28;20375;-28
2022/10/31 03:11:48;;;;;;;0.28;0.28;;;;;;;19.29;62.39;97031.03;10508987;28;20043;-29
2022/10/31 03:16:51;;;;;;;0.20;0.20;;;;;;;19.23;62.29;97025.06;10544395;28;20039;-29
2022/10/31 03:22:16;;;;;;;1.02;0.25;;;;;;;19.30;62.26;97026.78;10535527;28;20028;-29
2022/10/31 03:27:22;;;;;;;1.77;0.30;;;;;;;19.29;62.19;97027.63;10549155;28;20296;-29
2022/10/31 03:32:48;;;;;;;0.25;0.25;;;;;;;19.42;66.07;97021.72;10544112;28;20035;-29
2022/10/31 03:37:53;;;;;;;0.30;0.30;;;;;;;19.52;65.25;97028.50;10540823;28;20055;-28
2022/10/31 03:42:59;;;;;;;0.40;0.30;;;;;;;19.49;63.50;97020.91;10544879;28;20043;-30
2022/10/31 03:48:00;;;;;;;;;;;;;;;19.35;62.54;97023.41;10535162;28;20063;-29
2022/10/31 03:53:11;;;;;;;0.20;0.15;;;;;;;19.30;62.83;97024.25;10535673;28;20394;-30
2022/10/31 03:58:27;;;;;;;0.47;0.45;;;;;;;19.31;62.72;97013.22;10564953;28;20504;-29
2022/10/31 04:03:36;;;;;;;0.50;0.30;;;;;;;19.25;62.73;97008.16;10542964;28;20024;-28
2022/10/31 04:08:45;;;;;;;0.45;0.30;;;;;;;19.26;62.56;97000.53;10547304;28;20289;-29
2022/10/31 04:13:51;;;;;;;0.30;0.30;;;;;;;19.30;62.75;97006.47;10550094;28;20044;-30
2022/10/31 04:18:56;;;;;;;0.20;0.20;;;;;;;19.24;62.35;96994.63;10547381;28;20124;-28
2022/10/31 04:23:57;;;;;;;0.35;0.20;;;;;;;19.25;62.26;97001.38;10547883;28;20050;-29
2022/10/31 04:29:00;;;;;;;0.55;0.50;;;;;;;19.26;62.15;96999.72;10542038;28;20036;-29
2022/10/31 04:34:02;;;;;;;0.43;0.43;;;;;;;19.37;64.99;96998.00;10545861;28;20035;-29
2022/10/31 04:39:02;;;;;;;0.50;0.40;;;;;;;19.49;65.57;96998.03;10547406;28;20030;-29
2022/10/31 04:44:11;;;;;;;0.30;0.30;;;;;;;19.50;64.25;96994.66;10546868;28;20043;-29
2022/10/31 04:49:12;;;;;;;0.50;0.45;;;;;;;19.37;62.56;96977.69;10545326;28;20047;-28
2022/10/31 04:54:12;;;;;;;0.50;0.33;;;;;;;19.31;62.69;96987.84;10565929;28;20019;-30
2022/10/31 04:59:51;;;;;;;0.77;0.40;;;;;;;19.30;62.35;96983.63;10552978;28;20282;-28
2022/10/31 05:04:51;;;;;;;0.40;0.20;;;;;;;19.29;62.56;96975.16;10547389;28;20478;-29
2022/10/31 05:09:52;;;;;;;0.30;0.30;;;;;;;19.29;62.73;96975.16;10551251;28;20285;-29
2022/10/31 05:14:54;;;;;;;0.40;0.30;;;;;;;19.30;62.44;96981.94;10546628;28;20028;-28
2022/10/31 05:20:33;;;;;;;0.32;0.30;;;;;;;19.29;62.35;96985.31;10404483;28;20043;-28
2022/10/31 05:25:49;;;;;;;0.47;0.47;;;;;;;19.30;62.16;96991.22;10508753;28;20043;-30
2022/10/31 05:30:49;;;;;;;0.40;0.30;;;;;;;19.29;61.97;96985.31;10560566;28;20039;-29
2022/10/31 05:35:50;;;;;;;0.28;0.28;;;;;;;19.33;64.33;96981.09;10548417;28;20016;-29
2022/10/31 05:41:02;;;;;;;0.85;0.30;;;;;;;19.46;65.40;96977.72;10563884;28;20100;-29
2022/10/31 05:46:05;;;;;;;0.15;0.15;;;;;;;19.51;64.18;96973.50;10551882;28;20079;-28
2022/10/31 05:51:25;;;;;;;0.15;0.15;;;;;;;19.39;62.89;96973.47;10508882;28;20054;-28
2022/10/31 05:56:26;;;;;;;0.30;0.22;;;;;;;19.31;62.60;96973.47;10567679;28;20034;-28
2022/10/31 06:01:26;;;;;;;0.30;0.30;;;;;;;19.30;62.36;96981.06;10566156;28;20393;-30
2022/10/31 06:06:27;;;;;;;0.40;0.35;;;;;;;19.30;62.60;96976.00;10544656;28;20031;-28
2022/10/31 06:11:27;;;;;;;0.37;0.20;;;;;;;19.28;62.73;96976.03;10541769;28;20031;-28
2022/10/31 06:16:36;;;;;;;0.70;0.30;;;;;;;19.29;62.30;96976.84;10563631;28;20296;-30
2022/10/31 06:21:57;;;;;;;0.35;0.30;;;;;;;19.28;61.94;96978.56;10557186;28;20055;-29
2022/10/31 06:26:57;;;;;;;0.20;0.20;;;;;;;19.29;62.12;96979.38;10544568;28;20516;-28
2022/10/31 06:31:58;;;;;;;0.20;0.20;;;;;;;19.28;61.92;96977.69;10536231;28;20129;-29
2022/10/31 06:36:58;;;;;;;0.32;0.20;;;;;;;19.27;61.95;96971.75;10543318;28;20084;-29
2022/10/31 06:42:00;;;;;;;0.32;0.30;;;;;;;19.42;65.33;96981.09;10545126;28;20028;-28
2022/10/31 06:47:01;;;;;;;0.20;0.20;;;;;;;19.50;64.91;96974.34;10541757;28;20040;-29
2022/10/31 06:52:28;;;;;;;0.38;0.20;;;;;;;19.43;63.52;96967.56;10536840;28;20118;-29
2022/10/31 06:57:29;;;;;;;0.45;0.45;;;;;;;19.29;62.69;96970.09;10541615;28;20092;-29
2022/10/31 07:02:30;;;;;;;0.33;0.20;;;;;;;19.31;62.48;96982.78;10540093;28;20451;-29
2022/10/31 07:07:31;;;;;;;0.47;0.45;;;;;;;19.30;62.38;96976.00;10543389;28;20293;-29
2022/10/31 07:12:32;;;;;;;0.40;0.32;;;;;;;19.29;62.48;96980.25;10558850;28;20034;-29
2022/10/31 07:17:33;;;;;;;0.35;0.35;;;;;;;19.23;62.48;96984.44;10537552;28;20201;-27
2022/10/31 07:22:36;;;;;;;0.98;0.50;;;;;;;19.29;62.42;96997.16;10537259;28;20216;-29
2022/10/31 07:27:40;;;;;;;0.32;0.30;;;;;;;19.28;62.40;96988.72;10545401;28;20034;-29
2022/10/31 07:32:44;;;;;;;0.50;0.40;;;;;;;19.27;62.02;96987.00;10536946;28;20134;-29
2022/10/31 07:37:46;;;;;;;0.30;0.30;;;;;;;19.27;62.06;97002.22;10542012;28;20023;-30
2022/10/31 07:42:50;;;;;;;0.30;0.28;;;;;;;19.33;64.70;96992.09;10551600;28;20032;-28
2022/10/31 07:48:23;;;;;;;0.77;0.43;;;;;;;19.47;64.51;96995.50;10547417;28;20047;-29
2022/10/31 07:53:42;;;;;;;0.25;0.25;;;;;;;19.46;63.04;97000.56;10565835;28;20028;-29
2022/10/31 07:58:48;;;;;;;0.30;0.20;;;;;;;19.32;62.51;97004.78;10547156;28;20036;-29
2022/10/31 08:03:49;;;;;;;0.10;0.10;;;;;;;19.30;62.59;96996.31;10572549;28;20043;-28
2022/10/31 08:09:09;;;;;;;0.22;0.22;;;;;;;19.30;62.69;97006.47;10567651;28;20040;-30
2022/10/31 08:14:09;;;;;;;0.25;0.20;;;;;;;19.29;62.46;96999.69;10542385;28;20023;-29
2022/10/31 08:19:10;;;;;;;0.37;0.37;;;;;;;19.29;62.48;97004.78;10549808;28;20027;-29
2022/10/31 08:24:12;;;;;;;0.30;0.28;;;;;;;19.27;62.32;96997.16;10545436;28;20338;-29
2022/10/31 08:29:14;;;;;;;0.70;0.50;;;;;;;19.21;62.15;96983.59;10543729;28;20070;-30
2022/10/31 08:34:16;;;;;;;0.30;0.30;;;;;;;19.22;62.22;96980.22;10548324;28;20475;-29
2022/10/31 08:39:34;;;;;;;0.40;0.40;;;;;;;19.27;61.64;96986.16;10562747;28;20402;-31
2022/10/31 08:44:35;;;;;;;0.40;0.30;;;;;;;19.28;64.26;96972.63;10560274;28;20032;-28
2022/10/31 08:49:37;;;;;;;0.35;0.30;;;;;;;19.45;64.67;96986.19;10543573;28;20027;-28
2022/10/31 08:54:38;;;;;;;0.28;0.28;;;;;;;19.49;63.80;96982.81;10547009;28;20386;-29
2022/10/31 08:59:56;;;;;;;0.43;0.40;;;;;;;19.35;63.03;96975.16;10547303;28;20114;-29
2022/10/31 09:05:06;;;;;;;0.63;0.40;;;;;;;19.30;62.50;96963.31;10567371;28;20050;-29
2022/10/31 09:10:08;;;;;;;0.40;0.30;;;;;;;19.29;62.62;96965.03;10553269;28;20064;-29
2022/10/31 09:15:10;;;;;;;0.32;0.30;;;;;;;19.28;62.85;96953.19;10551090;28;20516;-29
2022/10/31 09:20:30;;;;;;;0.38;0.30;;;;;;;19.28;62.61;96952.31;10544570;28;20115;-28
2022/10/31 09:25:32;;;;;;;0.20;0.20;;;;;;;19.27;62.50;96943.00;10542532;28;20638;-29
2022/10/31 09:31:02;;;;;;;0.35;0.35;;;;;;;19.28;62.26;96937.09;10457898;28;20047;-29
2022/10/31 09:36:21;;;;;;;0.50;0.40;;;;;;;19.28;62.23;96937.09;10565520;28;20038;-28
2022/10/31 09:41:46;;;;;;;0.37;0.30;;;;;;;19.27;62.23;96928.59;10565384;28;20477;-29
2022/10/31 09:46:59;;;;;;;0.80;0.50;;;;;;;19.30;64.48;96918.47;10534850;28;20292;-29
2022/10/31 09:52:11;;;;;;;0.30;0.30;;;;;;;19.44;65.14;96926.09;10541957;28;20028;-29
2022/10/31 09:57:20;;;;;;;0.28;0.28;;;;;;;19.49;63.95;96932.03;10551512;28;20024;-30
2022/10/31 10:02:44;;;;;;;0.20;0.10;;;;;;;19.38;62.82;96938.78;10528786;28;20548;-29
2022/10/31 10:08:09;;;;;;;0.28;0.28;;;;;;;19.29;62.53;96929.47;10559093;28;20035;-29
2022/10/31 10:14:16;;;;;;;0.60;0.30;;;;;;;19.27;62.63;96921.00;10521796;28;20030;-29
2022/10/31 10:19:58;;;;;;;1.45;0.38;;;;;;;19.28;62.56;96921.84;10561149;28;20054;-29
2022/10/31 10:25:10;;;;;;;0.35;0.32;;;;;;;19.27;62.53;96915.09;10560752;28;20417;-29
2022/10/31 10:30:17;;;;;;;0.40;0.40;;;;;;;19.27;62.48;96912.56;10568455;28;20035;-29
2022/10/31 10:35:31;;;;;;;0.52;0.20;;;;;;;19.27;62.18;96912.56;10558370;28;20104;-29
2022/10/31 10:40:31;;;;;;;0.45;0.40;;;;;;;19.27;62.10;96915.09;10566161;28;20039;-29
2022/10/31 10:50:52;;;;;;;0.65;0.50;;;;;;;19.28;64.45;96897.31;10556180;28;20469;-29
2022/10/31 10:55:58;;;;;;;0.20;0.20;;;;;;;19.44;65.17;96904.06;10566315;28;20449;-29
2022/10/31 11:00:59;;;;;;;0.20;0.20;;;;;;;19.49;64.17;96919.31;10557497;28;20489;-30
2022/10/31 11:06:00;;;;;;;0.30;0.20;;;;;;;19.38;62.98;96921.00;10550595;28;20048;-28
2022/10/31 11:11:04;;;;;;;0.40;0.20;;;;;;;19.31;62.87;96921.84;10561383;28;20520;-29
2022/10/31 11:16:27;;;;;;;0.47;0.45;;;;;;;19.31;62.87;96921.84;10548050;28;20031;-29
2022/10/31 11:21:29;;;;;;;0.50;0.40;;;;;;;19.26;62.73;96909.16;10562809;28;20040;-29
2022/10/31 11:26:30;;;;;;;0.98;0.30;;;;;;;19.28;62.43;96916.78;10559957;28;20059;-28
2022/10/31 11:31:34;;;;;;;0.82;0.30;;;;;;;19.23;62.46;96888.00;10558976;28;20028;-29
2022/10/31 11:36:38;;;;;;;0.13;0.13;;;;;;;19.26;62.43;96875.31;10561592;28;20110;-29
2022/10/31 11:41:39;;;;;;;0.40;0.40;;;;;;;19.26;62.16;96867.72;10557868;28;20036;-29
2022/10/31 11:46:44;;;;;;;0.20;0.20;;;;;;;19.26;62.08;96855.84;10558352;28;20062;-29
2022/10/31 11:51:50;;;;;;;0.50;0.27;;;;;;;19.27;62.55;96854.16;10553741;28;20039;-28
2022/10/31 11:56:51;;;;;;;0.85;0.40;;;;;;;19.40;65.36;96841.44;10562362;28;20436;-28
2022/10/31 12:01:53;;;;;;;0.40;0.40;;;;;;;19.47;64.75;96827.03;10559094;28;20048;-29
2022/10/31 12:06:54;;;;;;;0.30;0.25;;;;;;;19.42;63.05;96816.06;10558628;28;20036;-29
2022/10/31 12:12:46;;;;;;;0.20;0.20;;;;;;;19.28;62.71;96800.88;10565087;28;20114;-29
2022/10/31 12:17:53;;;;;;;0.30;0.20;;;;;;;19.23;62.74;96778.84;10510168;28;20067;-29
2022/10/31 12:23:15;;;;;;;0.30;0.30;;;;;;;19.27;62.82;96772.94;10555794;28;20070;-30
2022/10/31 12:28:28;;;;;;;0.22;0.20;;;;;;;19.26;62.77;96751.78;10566502;28;20036;-29
2022/10/31 12:34:00;;;;;;;0.17;0.10;;;;;;;19.26;62.62;96741.63;10564559;28;20095;-29
2022/10/31 12:39:23;;;;;;;0.20;0.20;;;;;;;19.27;62.55;96742.47;10562989;28;20032;-29
2022/10/31 12:44:42;;;;;;;0.65;0.30;;;;;;;19.22;62.78;96734.00;10556266;28;20035;-29
2022/10/31 12:50:01;;;;;;;0.55;0.55;;;;;;;19.27;62.60;96737.41;10556772;28;20036;-29
2022/10/31 12:55:03;;;;;;;0.57;0.57;;;;;;;19.30;64.85;96737.38;10564834;28;20401;-29
2022/10/31 13:00:15;;;;;;;0.50;0.40;;;;;;;19.43;65.51;96724.63;10567784;28;20565;-29
2022/10/31 13:05:21;;;;;;;0.32;0.30;;;;;;;19.50;64.67;96722.94;10565674;28;20042;-29
2022/10/31 13:10:31;;;;;;;0.40;0.32;;;;;;;19.40;63.13;96703.50;10564553;28;20464;-31
2022/10/31 13:15:47;;;;;;;0.47;0.22;;;;;;;19.29;62.81;96687.47;10567568;28;20062;-29
2022/10/31 13:20:49;;;;;;;1.20;0.30;;;;;;;19.25;62.87;96678.19;10555569;28;20028;-29
2022/10/31 13:25:53;;;;;;;0.40;0.30;;;;;;;19.27;62.93;96682.38;10567662;28;20118;-28
2022/10/31 13:30:54;;;;;;;0.28;0.28;;;;;;;19.27;62.79;96686.63;10564677;28;20490;-29
2022/10/31 13:36:14;;;;;;;0.55;0.30;;;;;;;19.26;62.65;96674.78;10555486;28;20032;-29
2022/10/31 13:41:44;;;;;;;0.30;0.30;;;;;;;19.25;62.71;96665.50;10565042;28;20033;-29
2022/10/31 13:46:45;;;;;;;0.57;0.30;;;;;;;19.26;62.64;96654.50;10560912;28;20063;-29
2022/10/31 13:51:46;;;;;;;0.45;0.30;;;;;;;19.27;63.03;96653.63;10562441;28;20113;-29
2022/10/31 13:56:52;;;;;;;0.40;0.40;;;;;;;19.27;63.15;96646.84;10561115;28;20482;-28
2022/10/31 14:01:57;;;;;;;0.35;0.30;;;;;;;19.43;65.92;96652.72;10563694;28;20027;-29
2022/10/31 14:07:11;;;;;;;0.70;0.60;;;;;;;19.50;64.63;96641.69;10563642;28;20496;-28
2022/10/31 14:12:25;;;;;;;0.20;0.20;;;;;;;19.41;63.03;96634.13;10568876;28;20024;-29
2022/10/31 14:17:32;;;;;;;0.20;0.20;;;;;;;19.30;62.60;96635.84;10564490;28;20472;-29
2022/10/31 14:22:33;;;;;;;0.20;0.20;;;;;;;19.28;62.78;96623.19;10562312;28;20067;-29
2022/10/31 14:27:45;;;;;;;0.40;0.20;;;;;;;19.28;62.79;96614.72;10567386;28;20068;-30
2022/10/31 14:32:51;;;;;;;0.22;0.22;;;;;;;19.27;62.92;96605.41;10557736;28;20031;-30
2022/10/31 14:38:30;;;;;;;0.63;0.40;;;;;;;19.26;62.75;96598.66;10563810;28;20106;-29
2022/10/31 14:43:41;;;;;;;0.30;0.30;;;;;;;19.25;62.87;96590.19;10511648;28;20051;-28
2022/10/31 14:49:02;;;;;;;0.30;0.28;;;;;;;19.24;62.86;96587.66;10559751;28;20036;-29
2022/10/31 14:54:06;;;;;;;0.70;0.30;;;;;;;19.25;62.78;96587.63;10562253;28;20129;-28
2022/10/31 14:59:16;;;;;;;0.82;0.82;;;;;;;19.27;63.96;96578.31;10569368;28;20477;-29
2022/10/31 15:04:20;;;;;;;0.47;0.30;;;;;;;19.43;65.94;96571.47;10565579;28;20039;-28
2022/10/31 15:09:26;;;;;;;0.43;0.32;;;;;;;19.49;65.01;96571.44;10560775;28;20032;-29
2022/10/31 15:14:30;;;;;;;0.23;0.23;;;;;;;19.40;63.20;96572.31;10566155;28;20683;-29
2022/10/31 15:19:33;;;;;;;0.30;0.30;;;;;;;19.30;62.98;96577.47;10563094;28;20034;-28
2022/10/31 15:24:37;;;;;;;0.22;0.20;;;;;;;19.28;63.01;96586.78;10566073;28;20059;-29
2022/10/31 15:29:47;;;;;;;0.43;0.40;;;;;;;19.29;62.73;96578.31;10565062;28;20039;-29
2022/10/31 15:34:50;;;;;;;0.30;0.30;;;;;;;19.28;62.90;96591.84;10555118;28;20035;-29
2022/10/31 15:39:51;;;;;;;0.43;0.30;;;;;;;19.27;62.73;96583.38;10565645;28;20401;-28
2022/10/31 15:45:02;;;;;;;0.45;0.35;;;;;;;19.27;63.02;96593.53;10555500;28;20514;-30
2022/10/31 15:50:12;;;;;;;0.50;0.38;;;;;;;19.27;62.69;96603.69;10558725;28;20051;-29
2022/10/31 15:55:22;;;;;;;0.40;0.30;;;;;;;19.28;62.49;96607.09;10563922;28;20019;-29
2022/10/31 16:00:24;;;;;;;0.50;0.50;;;;;;;19.27;62.38;96605.41;10558810;28;20051;-28
2022/10/31 16:05:35;;;;;;;0.40;0.40;;;;;;;19.39;66.05;96595.16;10569493;28;20443;-28
2022/10/31 16:10:36;;;;;;;0.20;0.20;;;;;;;19.49;65.62;96607.00;10565627;28;20036;-29
2022/10/31 16:15:36;;;;;;;0.45;0.30;;;;;;;19.48;63.59;96615.44;10571354;28;20413;-28
2022/10/31 16:20:37;;;;;;;0.25;0.20;;;;;;;19.32;62.55;96613.81;10564379;28;20056;-29
2022/10/31 16:25:38;;;;;;;0.35;0.30;;;;;;;19.26;62.64;96618.94;10570974;28;20020;-27
2022/10/31 16:30:41;;;;;;;0.20;0.20;;;;;;;19.28;62.78;96637.56;10565000;28;20557;-28
2022/10/31 16:35:41;;;;;;;0.85;0.40;;;;;;;19.28;62.72;96642.63;10569043;28;20027;-29
2022/10/31 16:40:43;;;;;;;0.30;0.30;;;;;;;19.24;62.75;96646.88;10566396;28;20035;-28
2022/10/31 16:45:46;;;;;;;0.60;0.30;;;;;;;19.27;62.62;96640.94;10569660;28;20027;-30
2022/10/31 16:50:47;;;;;;;0.40;0.40;;;;;;;19.26;62.54;96668.00;10565580;28;20028;-28
2022/10/31 16:55:55;;;;;;;1.05;0.35;;;;;;;19.26;62.32;96670.53;10565034;28;20020;-28
2022/10/31 17:00:56;;;;;;;0.20;0.20;;;;;;;19.26;62.07;96664.63;10566438;28;20028;-29
2022/10/31 17:05:56;;;;;;;0.40;0.40;;;;;;;19.27;62.26;96661.25;10566307;28;20036;-29
2022/10/31 17:10:58;;;;;;;0.95;0.52;;;;;;;19.42;65.85;96672.16;10563676;28;20036;-29
2022/10/31 17:16:00;;;;;;;0.38;0.30;;;;;;;19.46;64.71;96676.41;10559526;28;20511;-29
2022/10/31 17:21:04;;;;;;;0.55;0.30;;;;;;;19.41;62.94;96675.56;10562472;28;20032;-29
2022/10/31 17:26:07;;;;;;;0.22;0.22;;;;;;;19.30;62.55;96686.59;10567716;28;20380;-29
2022/10/31 17:31:28;;;;;;;0.20;0.20;;;;;;;19.24;62.77;96691.72;10563576;28;20115;-29
2022/10/31 17:36:28;;;;;;;0.47;0.35;;;;;;;19.28;62.64;96695.94;10562937;28;20028;-29
2022/10/31 17:41:29;;;;;;;0.30;0.20;;;;;;;19.23;62.46;96670.56;10563908;28;20023;-30
2022/10/31 17:46:29;;;;;;;0.30;0.30;;;;;;;19.25;62.58;96698.50;10563776;28;20508;-29
2022/10/31 17:51:30;;;;;;;0.30;0.30;;;;;;;19.26;62.45;96721.31;10565205;28;20032;-31
2022/10/31 17:56:30;;;;;;;0.63;0.43;;;;;;;19.27;62.34;96712.00;10560655;28;20327;-29
2022/10/31 18:01:31;;;;;;;0.50;0.28;;;;;;;19.27;62.11;96728.06;10564786;28;20289;-30
2022/10/31 18:06:31;;;;;;;0.63;0.47;;;;;;;19.22;62.24;96701.03;10562912;28;20044;-32
2022/10/31 18:11:32;;;;;;;0.40;0.40;;;;;;;19.37;65.85;96724.69;10566874;28;20042;-28
2022/10/31 18:16:32;;;;;;;0.60;0.40;;;;;;;19.45;65.06;96684.00;10561801;28;20023;-28
2022/10/31 18:21:32;;;;;;;0.40;0.30;;;;;;;19.47;63.90;96730.56;10565752;28;20505;-29
2022/10/31 18:26:33;;;;;;;0.53;0.53;;;;;;;19.34;62.89;96704.34;10562743;28;20061;-30
2022/10/31 18:31:33;;;;;;;0.43;0.30;;;;;;;19.28;62.64;96716.25;10560835;28;20027;-30
2022/10/31 18:36:33;;;;;;;0.70;0.50;;;;;;;19.28;62.46;96708.63;10554915;28;20032;-29
2022/10/31 18:41:34;;;;;;;0.60;0.40;;;;;;;19.28;62.61;96718.78;10560050;28;20027;-29
2022/10/31 18:46:35;;;;;;;0.30;0.30;;;;;;;19.27;62.54;96712.00;10564799;28;20100;-28
2022/10/31 18:51:35;;;;;;;0.30;0.30;;;;;;;19.26;62.25;96705.25;10561824;28;20028;-29
2022/10/31 18:56:36;;;;;;;0.50;0.37;;;;;;;19.27;62.24;96696.78;10557631;28;20024;-28
2022/10/31 19:01:36;;;;;;;0.37;0.37;;;;;;;19.27;61.92;96686.63;10559202;28;20042;-29
2022/10/31 19:06:36;;;;;;;0.70;0.65;;;;;;;19.26;61.95;96680.69;10562039;28;20043;-28
2022/10/31 19:11:37;;;;;;;0.68;0.68;;;;;;;19.26;62.19;96664.63;10564958;28;20451;-30
2022/10/31 19:16:38;;;;;;;0.30;0.30;;;;;;;19.39;65.66;96669.66;10559478;28;20406;-30
2022/10/31 19:21:38;;;;;;;0.55;0.47;;;;;;;19.48;64.96;96661.13;10561140;28;20034;-28
2022/10/31 19:26:39;;;;;;;0.60;0.50;;;;;;;19.43;62.79;96660.34;10560829;28;20027;-28
2022/10/31 19:31:39;;;;;;;0.30;0.30;;;;;;;19.29;62.47;96660.41;10555695;28;20031;-29
2022/10/31 19:36:39;;;;;;;0.50;0.30;;;;;;;19.27;62.34;96661.25;10556154;28;20108;-29
2022/10/31 19:41:40;;;;;;;0.40;0.40;;;;;;;19.27;62.52;96667.16;10558090;28;20516;-27
2022/10/31 19:46:43;;;;;;;0.43;0.40;;;;;;;19.27;62.45;96662.06;10555916;28;20040;-28
2022/10/31 19:51:43;;;;;;;0.73;0.60;;;;;;;19.26;62.25;96664.63;10548918;28;20112;-28
2022/10/31 19:56:44;;;;;;;0.63;0.50;;;;;;;19.25;62.28;96668.03;10562356;28;20375;-29
2022/10/31 20:01:44;;;;;;;0.50;0.38;;;;;;;19.26;62.26;96660.38;10557600;28;20031;-28
2022/10/31 20:06:45;;;;;;;0.97;0.50;;;;;;;19.25;62.05;96656.16;10558832;28;20036;-30
2022/10/31 20:11:46;;;;;;;0.77;0.60;;;;;;;19.23;62.03;96662.94;10565876;28;20301;-28
2022/10/31 20:16:46;;;;;;;0.30;0.30;;;;;;;19.32;64.58;96659.50;10560130;28;20046;-29
2022/10/31 20:21:46;;;;;;;0.60;0.40;;;;;;;19.44;65.14;96667.09;10558264;28;20031;-29
2022/10/31 20:26:47;;;;;;;0.43;0.30;;;;;;;19.46;64.10;96663.72;10562660;28;20032;-29
2022/10/31 20:31:47;;;;;;;0.40;0.40;;;;;;;19.36;62.68;96661.22;10559605;28;20058;-28
2022/10/31 20:36:48;;;;;;;0.53;0.47;;;;;;;19.28;62.54;96657.84;10552600;28;20031;-30
2022/10/31 20:41:48;;;;;;;0.40;0.40;;;;;;;19.28;62.76;96668.88;10561118;28;20281;-30
2022/10/31 20:46:48;;;;;;;0.40;0.40;;;;;;;19.26;62.46;96670.53;10554913;28;20047;-30
2022/10/31 20:51:49;;;;;;;0.40;0.30;;;;;;;19.27;62.40;96671.41;10568795;28;20209;-28
2022/10/31 20:56:49;;;;;;;0.30;0.30;;;;;;;19.27;62.18;96672.22;10566107;28;20024;-29
2022/10/31 21:01:49;;;;;;;0.67;0.40;;;;;;;19.26;62.23;96669.72;10558857;28;20028;-29
2022/10/31 21:06:50;;;;;;;0.40;0.40;;;;;;;19.26;61.88;96664.63;10565916;28;20502;-28
2022/10/31 21:11:50;;;;;;;0.53;0.43;;;;;;;19.24;62.14;96659.56;10571983;28;20027;-29
2022/10/31 21:16:51;;;;;;;0.60;0.40;;;;;;;19.24;61.97;96667.16;10567098;28;20034;-29
2022/10/31 21:21:51;;;;;;;0.70;0.60;;;;;;;19.37;65.59;96667.97;10563685;28;20051;-29
2022/10/31 21:26:51;;;;;;;0.97;0.47;;;;;;;19.45;65.22;96667.09;10567859;28;20051;-29
2022/10/31 21:31:52;;;;;;;2.33;0.50;;;;;;;19.44;63.38;96669.63;10562424;28;20035;-29
2022/10/31 21:36:52;;;;;;;0.90;0.60;;;;;;;19.27;62.54;96656.16;10556944;28;20474;-29
2022/10/31 21:41:53;;;;;;;0.67;0.53;;;;;;;19.27;62.41;96661.25;10563497;28;20278;-30
2022/10/31 21:46:53;;;;;;;0.60;0.50;;;;;;;19.28;62.59;96657.84;10568881;28;20294;-29
2022/10/31 21:51:53;;;;;;;0.53;0.50;;;;;;;19.27;62.54;96658.72;10562347;28;20122;-30
2022/10/31 21:56:55;;;;;;;0.60;0.50;;;;;;;19.27;62.42;96662.06;10561831;28;20039;-30
2022/10/31 22:01:58;;;;;;;0.57;0.50;;;;;;;19.25;62.26;96661.25;10561282;28;20036;-29
2022/10/31 22:06:58;;;;;;;0.50;0.50;;;;;;;19.26;62.23;96659.56;10563007;28;20036;-28
2022/10/31 22:12:00;;;;;;;1.00;0.50;;;;;;;19.25;62.03;96657.88;10568115;28;20038;-29
2022/10/31 22:17:00;;;;;;;0.50;0.40;;;;;;;19.25;62.02;96655.34;10564187;28;20300;-29
2022/10/31 22:22:00;;;;;;;0.53;0.47;;;;;;;19.26;63.07;96668.00;10560984;28;20037;-30
2022/10/31 22:27:01;;;;;;;0.70;0.70;;;;;;;19.38;65.21;96660.34;10564702;28;20073;-29
2022/10/31 22:32:01;;;;;;;0.50;0.40;;;;;;;19.46;65.05;96670.47;10561541;28;20293;-29
2022/10/31 22:37:02;;;;;;;1.10;0.68;;;;;;;19.37;62.87;96662.88;10556783;28;20026;-30
2022/10/31 22:42:02;;;;;;;0.90;0.60;;;;;;;19.27;62.52;96663.78;10562580;28;20401;-29
2022/10/31 22:47:03;;;;;;;0.87;0.50;;;;;;;19.27;62.53;96651.09;10551140;28;20027;-29
2022/10/31 22:52:04;;;;;;;1.10;0.50;;;;;;;19.25;62.42;96650.25;10560966;28;20289;-29
2022/10/31 22:57:04;;;;;;;0.30;0.30;;;;;;;19.25;62.46;96647.72;10560303;28;20047;-29
2022/10/31 23:02:05;;;;;;;0.47;0.47;;;;;;;19.24;62.36;96641.78;10556906;28;20469;-28
2022/10/31 23:07:06;;;;;;;0.90;0.60;;;;;;;19.25;62.09;96632.50;10560235;28;20100;-30
2022/10/31 23:17:25;;;;;;;1.00;0.50;;;;;;;19.25;62.11;96640.13;10558854;28;20059;-29
2022/10/31 23:22:25;;;;;;;0.40;0.40;;;;;;;19.25;62.15;96627.41;10563092;28;20110;-29
2022/10/31 23:27:26;;;;;;;0.83;0.83;;;;;;;19.31;64.48;96630.78;10560891;28;20322;-30
2022/10/31 23:32:35;;;;;;;0.50;0.40;;;;;;;19.41;64.94;96632.41;10558137;28;20027;-29
2022/10/31 23:37:37;;;;;;;0.57;0.57;;;;;;;19.41;63.89;96636.66;10557652;28;20062;-28
2022/10/31 23:42:37;;;;;;;0.55;0.55;;;;;;;19.30;62.36;96633.31;10557240;28;20027;-30
2022/10/31 23:47:38;;;;;;;0.60;0.50;;;;;;;19.24;62.40;96636.72;10562541;28;20053;-29
2022/10/31 23:52:38;;;;;;;1.35;0.65;;;;;;;19.25;62.46;96617.28;10557124;28;20066;-29